Time;durP1;ratioP1;P1;durP2;ratioP2;P2;SDS_P1;SDS_P2;PMS_P1;PMS_P2;Temp;Humidity;BMP_temperature;BMP_pressure;BME280_temperature;BME280_humidity;BME280_pressure;Samples;Min_cycle;Max_cycle;Signal;HPM_P1;HPM_P2
2024/04/05 00:01:54;;;;;;;;;4.00;4.00;;;;;13.65;94.17;99751.69;6279010;20;2754444;-50
2024/04/05 00:04:20;;;;;;;;;3.00;3.00;;;;;13.52;96.49;99747.19;6282043;20;2747201;-47
2024/04/05 00:06:47;;;;;;;;;7.00;4.00;;;;;13.49;96.81;99757.34;6280310;20;2745090;-51
2024/04/05 00:09:13;;;;;;;;;4.00;4.00;;;;;13.65;97.27;99770.56;6278039;20;2745080;-51
2024/04/05 00:11:40;;;;;;;;;8.00;6.00;;;;;13.66;96.65;99785.78;6281081;20;2743055;-48
2024/04/05 00:14:06;;;;;;;;;7.00;6.00;;;;;13.59;98.54;99791.63;6277767;20;2736774;-51
2024/04/05 00:16:33;;;;;;;;;9.00;7.00;;;;;13.34;100.00;99803.31;6278458;20;2738869;-50
2024/04/05 00:18:59;;;;;;;;;8.00;7.00;;;;;13.30;100.00;99795.56;6278348;20;2740006;-51
2024/04/05 00:21:26;;;;;;;;;9.00;8.00;;;;;12.94;100.00;99803.38;6279377;20;2748229;-49
2024/04/05 00:23:54;;;;;;;;;9.50;6.50;;;;;12.86;100.00;99803.06;6278213;20;2752362;-53
2024/04/05 00:26:20;;;;;;;;;11.00;8.00;;;;;12.91;100.00;99806.31;6277772;20;2760747;-52
2024/04/05 00:28:47;;;;;;;;;9.00;7.50;;;;;12.78;100.00;99794.66;6278863;20;2737837;-52
2024/04/05 00:31:13;;;;;;;;;9.00;8.00;;;;;12.83;100.00;99795.19;6278594;20;2759795;-51
2024/04/05 00:33:42;;;;;;;;;7.60;7.60;;;;;12.62;100.00;99796.69;6303658;20;2748196;-48
2024/04/05 00:36:11;;;;;;;;;10.00;6.00;;;;;12.73;100.00;99792.25;6308514;20;2751363;-50
2024/04/05 00:38:37;;;;;;;;;5.00;3.50;;;;;12.66;100.00;99773.94;6277240;20;2754476;-48
2024/04/05 00:41:04;;;;;;;;;7.00;7.00;;;;;12.75;100.00;99773.31;6282105;20;2744115;-48
2024/04/05 00:43:31;;;;;;;;;7.50;7.50;;;;;12.79;100.00;99780.19;6278480;20;2750316;-45
2024/04/05 00:45:57;;;;;;;;;6.50;6.00;;;;;12.78;100.00;99774.94;6283268;20;2743541;-49
2024/04/05 00:48:24;;;;;;;;;7.00;5.00;;;;;12.62;100.00;99767.91;6275973;20;2741976;-50
2024/04/05 00:50:52;;;;;;;;;9.50;6.50;;;;;12.55;100.00;99760.34;6277974;20;2756598;-49
2024/04/05 00:53:31;;;;;;;;;6.50;5.50;;;;;12.03;100.00;99754.84;6280398;20;2738966;-48
2024/04/05 00:56:00;;;;;;;;;3.50;3.50;;;;;12.22;100.00;99746.38;6293183;20;1808725;-48
2024/04/05 00:58:28;;;;;;;;;4.50;4.00;;;;;11.79;100.00;99734.88;6308469;20;2748218;-50
2024/04/05 01:00:57;;;;;;;;;29.33;25.33;;;;;11.80;100.00;99725.88;6274311;20;3593076;-48
2024/04/05 01:03:25;;;;;;;;;24.00;24.00;;;;;12.03;100.00;99733.31;6306272;20;2840904;-49
2024/04/05 01:05:51;;;;;;;;;3.50;3.50;;;;;12.27;100.00;99743.41;6310244;20;2737840;-47
2024/04/05 01:08:18;;;;;;;;;8.00;7.50;;;;;12.04;100.00;99728.78;6276922;20;2738836;-47
2024/04/05 01:10:45;;;;;;;;;3.50;3.50;;;;;11.85;100.00;99708.44;6276883;20;2750343;-49
2024/04/05 01:13:13;;;;;;;;;6.00;6.00;;;;;11.93;100.00;99693.63;6279519;20;2732557;-47
2024/04/05 01:15:41;;;;;;;;;4.75;3.50;;;;;11.96;100.00;99688.94;6294957;20;1803454;-48
2024/04/05 01:18:11;;;;;;;;;3.00;3.00;;;;;11.89;100.00;99681.38;6308621;20;2756542;-46
2024/04/05 01:20:39;;;;;;;;;4.00;4.00;;;;;11.87;100.00;99673.38;6276558;20;2754453;-48
2024/04/05 01:23:13;;;;;;;;;6.00;4.00;;;;;11.91;100.00;99674.94;6280179;20;2756619;-47
2024/04/05 01:25:40;;;;;;;;;3.75;3.75;;;;;11.90;100.00;99657.06;6294529;20;1808735;-48
2024/04/05 01:28:13;;;;;;;;;3.00;3.00;;;;;11.57;100.00;99644.00;6324316;20;1803432;-49
2024/04/05 01:30:40;;;;;;;;;4.00;4.00;;;;;11.70;100.00;99628.78;6307587;20;2752432;-49
2024/04/05 01:33:06;;;;;;;;;4.00;4.00;;;;;11.56;100.00;99626.16;6275966;20;2745085;-48
2024/04/05 01:35:33;;;;;;;;;3.00;3.00;;;;;11.72;100.00;99620.63;6275590;20;2744173;-47
2024/04/05 01:38:00;;;;;;;;;6.00;5.00;;;;;11.95;100.00;99622.63;6274708;20;2748241;-46
2024/04/05 01:40:27;;;;;;;;;6.00;5.00;;;;;12.33;100.00;99627.19;6277031;20;2741979;-49
2024/04/05 01:42:54;;;;;;;;;5.00;4.00;;;;;12.06;100.00;99633.53;6276324;20;2751424;-47
2024/04/05 01:45:21;;;;;;;;;7.00;4.50;;;;;11.98;100.00;99640.38;6277896;20;2745120;-48
2024/04/05 01:47:48;;;;;;;;;5.00;4.00;;;;;11.72;100.00;99639.44;6274340;20;2748180;-49
2024/04/05 01:50:16;;;;;;;;;4.00;4.00;;;;;11.54;100.00;99641.53;6277784;20;2737794;-51
2024/04/05 01:52:43;;;;;;;;;4.00;4.00;;;;;11.30;100.00;99641.31;6277211;20;2748191;-47
2024/04/05 01:55:10;;;;;;;;;5.50;5.00;;;;;11.36;100.00;99638.22;6275209;20;2752441;-47
2024/04/05 01:57:37;;;;;;;;;4.00;4.00;;;;;11.49;100.00;99639.13;6276107;20;2738827;-47
2024/04/05 02:00:06;;;;;;;;;5.00;5.00;;;;;11.14;100.00;99631.56;6275970;20;2740939;-47
2024/04/05 02:02:33;;;;;;;;;4.00;4.00;;;;;11.47;100.00;99641.06;6277993;20;2754835;-47
2024/04/05 02:04:59;;;;;;;;;6.00;5.00;;;;;11.61;100.00;99650.88;6278126;20;2744920;-50
2024/04/05 02:07:27;;;;;;;;;5.50;4.00;;;;;10.91;100.00;99645.59;6278263;20;2739882;-50
2024/04/05 02:09:54;;;;;;;;;4.50;4.50;;;;;11.51;100.00;99656.03;6277217;20;2748749;-49
2024/04/05 02:12:23;;;;;;;;;4.00;4.00;;;;;11.58;100.00;99668.09;6275491;20;2745107;-50
2024/04/05 02:14:50;;;;;;;;;6.50;5.00;;;;;11.27;100.00;99674.63;6277176;20;2737822;-49
2024/04/05 02:17:16;;;;;;;;;5.00;5.00;;;;;11.39;100.00;99672.97;6277391;20;2743142;-48
2024/04/05 02:19:45;;;;;;;;;4.00;4.00;;;;;11.02;100.00;99667.28;6275962;20;2734783;-48
2024/04/05 02:22:11;;;;;;;;;5.00;5.00;;;;;10.81;100.00;99656.06;6277181;20;2736793;-52
2024/04/05 02:24:39;;;;;;;;;4.25;4.25;;;;;10.40;100.00;99643.41;6292283;20;1819197;-49
2024/04/05 02:27:05;;;;;;;;;6.00;6.00;;;;;11.01;100.00;99646.75;6308447;20;2735726;-49
2024/04/05 02:29:33;;;;;;;;;5.00;5.00;;;;;10.95;100.00;99652.50;6274382;20;2742079;-50
2024/04/05 02:32:03;;;;;;;;;5.67;4.00;;;;;11.14;100.00;99647.69;6318836;20;1799374;-47
2024/04/05 02:34:29;;;;;;;;;6.50;6.50;;;;;11.14;100.00;99638.78;6277160;20;2744046;-51
2024/04/05 02:36:56;;;;;;;;;7.50;6.00;;;;;10.94;100.00;99635.53;6276953;20;2733698;-51
2024/04/05 02:39:22;;;;;;;;;6.00;6.00;;;;;11.19;100.00;99633.97;6275155;20;2738827;-49
2024/04/05 02:41:49;;;;;;;;;7.00;7.00;;;;;11.02;100.00;99637.72;6275042;20;2739962;-47
2024/04/05 02:44:16;;;;;;;;;5.50;5.50;;;;;11.24;100.00;99641.69;6277565;20;2740907;-49
2024/04/05 02:46:43;;;;;;;;;5.50;5.50;;;;;10.98;100.00;99646.94;6276092;20;2744035;-50
2024/04/05 02:49:11;;;;;;;;;8.00;6.50;;;;;10.98;100.00;99653.19;6273459;20;2745113;-47
2024/04/05 02:51:37;;;;;;;;;10.00;8.00;;;;;11.21;100.00;99654.38;6271919;20;2763963;-48
2024/04/05 02:54:04;;;;;;;;;7.50;7.50;;;;;11.02;100.00;99658.34;6275561;20;2744045;-46
2024/04/05 02:56:30;;;;;;;;;9.00;7.50;;;;;10.84;100.00;99649.63;6273831;20;2744060;-46
2024/04/05 02:58:59;;;;;;;;;7.80;6.00;;;;;10.67;100.00;99654.25;6297461;20;2736743;-47
2024/04/05 03:01:25;;;;;;;;;7.50;7.50;;;;;10.78;100.00;99658.94;6306442;20;2746125;-50
2024/04/05 03:03:52;;;;;;;;;8.00;8.00;;;;;10.83;100.00;99670.25;6274240;20;2752523;-49
2024/04/05 03:06:20;;;;;;;;;9.50;9.50;;;;;10.72;100.00;99667.41;6280658;20;2571123;-46
2024/04/05 03:08:47;;;;;;;;;7.00;7.00;;;;;10.84;100.00;99677.34;6303691;20;2748222;-47
2024/04/05 03:11:13;;;;;;;;;8.50;8.50;;;;;10.87;100.00;99678.97;6276077;20;2739958;-48
2024/04/05 03:13:41;;;;;;;;;8.50;8.50;;;;;10.35;100.00;99682.19;6272662;20;2749290;-49
2024/04/05 03:16:08;;;;;;;;;12.00;9.00;;;;;10.81;100.00;99687.44;6273228;20;2770173;-47
2024/04/05 03:18:34;;;;;;;;;8.00;8.00;;;;;10.96;100.00;99681.97;6273966;20;2756556;-48
2024/04/05 03:21:01;;;;;;;;;12.00;12.00;;;;;10.39;100.00;99684.59;6277673;20;2789913;-46
2024/04/05 03:23:29;;;;;;;;;9.25;9.25;;;;;10.37;100.00;99686.53;6298634;20;2777515;-52
2024/04/05 03:25:57;;;;;;;;;9.00;9.00;;;;;10.19;100.00;99688.47;6303849;20;3459668;-48
2024/04/05 03:28:24;;;;;;;;;11.67;11.67;;;;;10.20;100.00;99692.88;6301284;20;2792026;-51
2024/04/05 03:30:52;;;;;;;;;9.20;9.20;;;;;10.16;100.00;99696.69;6329311;20;2777745;-47
2024/04/05 03:33:19;;;;;;;;;10.00;9.00;;;;;9.89;100.00;99710.78;6269569;20;2773288;-46
2024/04/05 03:35:45;;;;;;;;;11.00;11.00;;;;;9.31;100.00;99702.53;6274743;20;2790926;-51
2024/04/05 03:38:14;;;;;;;;;19.50;18.50;;;;;10.22;100.00;99708.91;6277783;20;2834778;-48
2024/04/05 03:40:42;;;;;;;;;24.33;24.33;;;;;9.41;100.00;99703.75;6277672;20;2848215;-47
2024/04/05 03:43:09;;;;;;;;;15.67;13.67;;;;;10.13;100.00;99717.47;6307341;20;2801380;-47
2024/04/05 03:45:37;;;;;;;;;17.33;15.67;;;;;9.78;100.00;99713.22;6308531;20;3556505;-48
2024/04/05 03:48:05;;;;;;;;;12.67;12.67;;;;;10.22;100.00;99733.06;6273977;20;3528398;-49
2024/04/05 03:50:32;;;;;;;;;13.67;12.33;;;;;9.50;100.00;99724.66;6308461;20;3538862;-48
2024/04/05 03:52:59;;;;;;;;;15.00;12.50;;;;;9.70;100.00;99715.50;6311115;20;2810721;-46
2024/04/05 03:55:25;;;;;;;;;11.50;11.50;;;;;9.41;100.00;99720.69;6282526;20;2789850;-48
2024/04/05 03:57:52;;;;;;;;;15.50;14.00;;;;;9.30;100.00;99716.91;6277923;20;2811219;-46
2024/04/05 04:00:21;;;;;;;;;15.00;15.00;;;;;9.71;100.00;99738.66;6283345;20;2789896;-47
2024/04/05 04:02:52;;;;;;;;;19.33;17.33;;;;;9.83;100.00;99729.91;6276890;20;3565908;-49
2024/04/05 04:05:20;;;;;;;;;20.00;18.00;;;;;9.56;100.00;99734.19;6280072;20;2831556;-46
2024/04/05 04:07:46;;;;;;;;;22.00;22.00;;;;;9.55;100.00;99727.94;6275856;20;2845518;-48
2024/04/05 04:10:14;;;;;;;;;17.50;17.50;;;;;10.10;100.00;99740.00;6273443;20;2494036;-50
2024/04/05 04:12:41;;;;;;;;;22.00;19.67;;;;;10.06;100.00;99743.81;6274823;20;3575298;-50
2024/04/05 04:15:11;;;;;;;;;20.00;20.00;;;;;9.78;100.00;99749.91;6275186;20;2500300;-47
2024/04/05 04:17:39;;;;;;;;;18.33;15.00;;;;;9.52;100.00;99754.06;6272818;20;3549225;-49
2024/04/05 04:20:08;;;;;;;;;13.67;13.67;;;;;9.92;100.00;99755.34;6273830;20;3529637;-51
2024/04/05 04:22:35;;;;;;;;;15.00;15.00;;;;;10.16;100.00;99762.91;6310705;20;2802471;-49
2024/04/05 04:25:03;;;;;;;;;14.33;14.00;;;;;9.98;100.00;99767.53;6276362;20;3529441;-47
2024/04/05 04:27:30;;;;;;;;;10.50;10.00;;;;;9.88;100.00;99768.06;6309613;20;2773315;-48
2024/04/05 04:29:58;;;;;;;;;11.40;11.40;;;;;10.07;100.00;99764.31;6299366;20;2786772;-48
2024/04/05 04:32:25;;;;;;;;;11.00;10.00;;;;;10.27;100.00;99764.06;6276726;20;2793218;-45
2024/04/05 04:34:52;;;;;;;;;12.00;12.00;;;;;10.49;100.00;99777.06;6275006;20;2784740;-46
2024/04/05 04:37:23;;;;;;;;;13.50;13.00;;;;;10.35;100.00;99779.72;6281179;20;2804599;-47
2024/04/05 04:39:49;;;;;;;;;12.00;12.00;;;;;10.43;100.00;99773.88;6276864;20;2803428;-52
2024/04/05 04:42:17;;;;;;;;;13.00;13.00;;;;;10.47;100.00;99778.94;6275626;20;2804752;-49
2024/04/05 04:44:44;;;;;;;;;13.50;13.50;;;;;10.31;100.00;99784.38;6309990;20;2802400;-49
2024/04/05 04:47:10;;;;;;;;;15.00;13.00;;;;;10.47;100.00;99784.31;6276684;20;2804638;-48
2024/04/05 04:49:38;;;;;;;;;13.67;13.00;;;;;10.41;100.00;99786.53;6275866;20;2796162;-48
2024/04/05 04:52:06;;;;;;;;;13.00;13.00;;;;;10.72;100.00;99790.94;6306729;20;2679563;-49
2024/04/05 04:54:33;;;;;;;;;13.67;13.67;;;;;10.52;100.00;99789.44;6275709;20;3528525;-46
2024/04/05 04:57:00;;;;;;;;;17.00;16.00;;;;;10.64;100.00;99775.28;6275882;20;2829443;-46
2024/04/05 04:59:29;;;;;;;;;18.50;17.50;;;;;10.80;100.00;99787.78;6274007;20;2496193;-51
2024/04/05 05:01:56;;;;;;;;;21.00;19.00;;;;;10.65;100.00;99790.41;6277698;20;2494155;-53
2024/04/05 05:04:23;;;;;;;;;12.00;11.50;;;;;10.98;100.00;99800.09;6309126;20;2804481;-49
2024/04/05 05:06:53;;;;;;;;;14.00;14.00;;;;;10.83;100.00;99798.31;6278038;20;2806533;-46
2024/04/05 05:09:20;;;;;;;;;17.33;16.00;;;;;10.95;100.00;99793.06;6277616;20;2821238;-51
2024/04/05 05:11:49;;;;;;;;;17.67;17.67;;;;;10.82;100.00;99794.78;6308420;20;2827374;-51
2024/04/05 05:14:16;;;;;;;;;17.00;17.00;;;;;11.33;100.00;99805.09;6303578;20;2487845;-50
2024/04/05 05:16:43;;;;;;;;;15.00;15.00;;;;;11.08;100.00;99806.59;6277475;20;2804472;-51
2024/04/05 05:19:10;;;;;;;;;20.00;18.50;;;;;11.41;100.00;99800.09;6271655;20;2498308;-51
2024/04/05 05:21:40;;;;;;;;;19.00;19.00;;;;;11.12;100.00;99802.78;6276493;20;2840290;-49
2024/04/05 05:24:07;;;;;;;;;17.50;17.50;;;;;11.27;100.00;99808.13;6272798;20;2500383;-46
2024/04/05 05:26:35;;;;;;;;;22.00;19.50;;;;;11.54;100.00;99810.94;6275688;20;2838831;-51
2024/04/05 05:29:02;;;;;;;;;18.50;18.50;;;;;11.94;100.00;99806.56;6273294;20;2830532;-49
2024/04/05 05:31:29;;;;;;;;;19.00;16.50;;;;;11.70;100.00;99806.28;6273193;20;2500298;-48
2024/04/05 05:33:57;;;;;;;;;19.50;19.50;;;;;11.97;100.00;99813.56;6275153;20;2839867;-51
2024/04/05 05:36:24;;;;;;;;;19.00;17.00;;;;;12.16;100.00;99818.59;6276104;20;2825306;-48
2024/04/05 05:38:52;;;;;;;;;20.33;19.67;;;;;11.92;100.00;99821.94;6270618;20;3574096;-50
2024/04/05 05:41:19;;;;;;;;;16.00;16.00;;;;;11.83;100.00;99815.28;6274012;20;2498352;-46
2024/04/05 05:43:46;;;;;;;;;17.00;15.33;;;;;12.32;100.00;99819.31;6275031;20;3541911;-47
2024/04/05 05:46:13;;;;;;;;;19.50;18.00;;;;;12.94;100.00;99827.66;6271996;20;2500399;-51
2024/04/05 05:48:40;;;;;;;;;18.50;17.50;;;;;12.67;100.00;99834.94;6271963;20;2500346;-48
2024/04/05 05:51:07;;;;;;;;;16.67;15.67;;;;;13.87;100.00;99842.72;6276421;20;2827340;-48
2024/04/05 05:53:34;;;;;;;;;12.00;11.00;;;;;14.23;100.00;99840.03;6304736;20;3519011;-50
2024/04/05 05:56:02;;;;;;;;;13.00;13.00;;;;;16.02;100.00;99849.56;6303962;20;3527392;-48
2024/04/05 05:58:30;;;;;;;;;15.33;13.33;;;;;18.01;86.49;99859.78;6269680;20;3529522;-47
2024/04/05 06:00:57;;;;;;;;;14.33;14.33;;;;;18.74;78.88;99868.53;6273044;20;3533619;-48
2024/04/05 06:03:25;;;;;;;;;12.67;11.00;;;;;20.69;69.25;99877.84;6270986;20;2789988;-47
2024/04/05 06:05:52;;;;;;;;;14.00;12.00;;;;;22.24;61.07;99882.78;6307889;20;2801427;-50
2024/04/05 06:08:19;;;;;;;;;13.00;13.00;;;;;20.13;63.54;99887.91;6276071;20;2800455;-47
2024/04/05 06:10:56;;;;;;;;;13.00;13.00;;;;;15.16;100.00;99877.16;6272430;20;3518177;-50
2024/04/05 06:13:24;;;;;;;;;12.33;12.33;;;;;14.75;100.00;99877.66;6303090;20;3529476;-50
2024/04/05 06:15:58;;;;;;;;;13.67;13.00;;;;;14.99;100.00;99872.22;6306259;20;3529691;-54
2024/04/05 06:18:28;;;;;;;;;17.50;15.00;;;;;14.96;100.00;99877.88;6270051;20;2814973;-51
2024/04/05 06:20:58;;;;;;;;;21.00;17.00;;;;;14.85;100.00;99881.34;6274033;20;2831567;-52
2024/04/05 06:23:26;;;;;;;;;14.00;14.00;;;;;15.00;100.00;99880.19;6277293;20;2799241;-51
2024/04/05 06:26:00;;;;;;;;;14.33;14.33;;;;;15.17;100.00;99889.72;6275059;20;3532609;-50
2024/04/05 06:28:28;;;;;;;;;16.00;14.00;;;;;15.22;100.00;99882.13;6273341;20;2817172;-53
2024/04/05 06:30:54;;;;;;;;;15.00;15.00;;;;;14.90;100.00;99881.88;6301978;20;2483775;-51
2024/04/05 06:33:22;;;;;;;;;19.00;14.33;;;;;14.96;100.00;99885.97;6275968;20;2815971;-50
2024/04/05 06:36:03;;;;;;;;;12.67;12.67;;;;;15.40;100.00;99893.31;6300851;20;3520187;-49
2024/04/05 06:38:29;;;;;;;;;15.00;14.00;;;;;15.39;100.00;99899.72;6304691;20;2806558;-51
2024/04/05 06:41:01;;;;;;;;;14.50;13.50;;;;;15.68;100.00;99891.16;6275742;20;2802460;-51
2024/04/05 06:43:30;;;;;;;;;13.33;13.33;;;;;16.22;100.00;99893.16;6275326;20;3531572;-50
2024/04/05 06:46:04;;;;;;;;;14.00;14.00;;;;;15.66;100.00;99901.25;6262540;20;3525647;-50
2024/04/05 06:48:38;;;;;;;;;12.67;12.67;;;;;16.20;100.00;99901.38;6304726;20;3533645;-51
2024/04/05 06:51:11;;;;;;;;;12.50;12.50;;;;;16.09;100.00;99905.94;6306950;20;2800490;-50
2024/04/05 06:53:41;;;;;;;;;13.00;11.00;;;;;16.18;100.00;99916.03;6279717;20;2785726;-51
2024/04/05 06:56:10;;;;;;;;;9.00;9.00;;;;;16.24;100.00;99902.00;6276344;20;2754482;-50
2024/04/05 06:58:37;;;;;;;;;10.00;10.00;;;;;16.46;100.00;99915.50;6301250;20;2789866;-50
2024/04/05 07:01:05;;;;;;;;;8.00;8.00;;;;;16.50;100.00;99913.41;6329415;20;2753472;-50
2024/04/05 07:03:34;;;;;;;;;8.00;8.00;;;;;16.75;100.00;99923.09;6331575;20;2740917;-49
2024/04/05 07:06:06;;;;;;;;;10.00;8.40;;;;;16.89;100.00;99920.09;6332756;20;2765937;-51
2024/04/05 07:08:33;;;;;;;;;9.50;8.00;;;;;16.75;99.72;99919.50;6274218;20;2753554;-48
2024/04/05 07:11:00;;;;;;;;;8.00;8.00;;;;;16.73;98.50;99927.75;6276458;20;2748205;-50
2024/04/05 07:13:30;;;;;;;;;4.60;4.60;;;;;16.89;98.21;99925.50;6300706;20;2751359;-47
2024/04/05 07:16:00;;;;;;;;;5.75;5.75;;;;;16.79;94.87;99934.56;6337248;20;2741959;-47
2024/04/05 07:18:29;;;;;;;;;5.00;5.00;;;;;17.10;94.22;99930.13;6299722;20;2730499;-50
2024/04/05 07:21:00;;;;;;;;;8.00;8.00;;;;;17.64;92.57;99929.09;6332891;20;2734691;-48
2024/04/05 07:23:29;;;;;;;;;8.40;8.00;;;;;17.12;96.14;99930.88;6332263;20;2744038;-50
2024/04/05 07:25:57;;;;;;;;;7.80;7.80;;;;;17.30;95.25;99929.28;6332892;20;2734560;-48
2024/04/05 07:28:25;;;;;;;;;9.60;7.60;;;;;17.65;94.30;99930.81;6330276;20;2740912;-52
2024/04/05 07:30:54;;;;;;;;;5.80;5.40;;;;;17.49;93.63;99928.56;6297519;20;2743001;-50
2024/04/05 07:33:22;;;;;;;;;5.80;5.40;;;;;17.95;90.53;99929.97;6333004;20;2733844;-50
2024/04/05 07:35:55;;;;;;;;;6.60;6.60;;;;;17.84;89.26;99929.22;6329056;20;2738259;-54
2024/04/05 07:38:25;;;;;;;;;6.00;6.00;;;;;17.71;89.14;99926.69;6331028;20;2733723;-51
2024/04/05 07:41:05;;;;;;;;;7.80;4.20;;;;;17.88;84.98;99936.97;6330224;20;2744095;-50
2024/04/05 07:43:36;;;;;;;;;4.00;4.00;;;;;18.29;82.53;99932.41;6350812;20;3460686;-49
2024/04/05 07:46:04;;;;;;;;;5.00;5.00;;;;;18.46;81.63;99930.91;6330905;20;2748317;-46
2024/04/05 07:48:31;;;;;;;;;4.50;4.00;;;;;18.65;80.50;99921.94;6307549;20;2748209;-52
2024/04/05 07:51:00;;;;;;;;;5.00;4.80;;;;;18.89;80.70;99928.88;6302477;20;2748218;-45
2024/04/05 07:53:27;;;;;;;;;3.00;3.00;;;;;19.36;74.23;99929.84;6305727;20;2749245;-47
2024/04/05 07:55:54;;;;;;;;;4.33;3.00;;;;;19.66;69.17;99930.66;6307401;20;2738881;-46
2024/04/05 07:58:21;;;;;;;;;4.00;4.00;;;;;19.75;72.14;99921.66;6311177;20;2638002;-46
2024/04/05 08:00:50;;;;;;;;;0.33;0.33;;;;;19.48;71.17;99927.81;6283813;20;2728453;-47
2024/04/05 08:03:17;;;;;;;;;2.00;2.00;;;;;19.52;69.57;99932.00;6306855;20;2752427;-47
2024/04/05 08:05:45;;;;;;;;;3.00;3.00;;;;;19.61;67.47;99935.69;6308689;20;2741028;-48
2024/04/05 08:08:13;;;;;;;;;1.67;1.00;;;;;19.55;63.39;99936.28;6308357;20;2718036;-47
2024/04/05 08:10:40;;;;;;;;;2.00;2.00;;;;;19.80;62.78;99930.25;6307192;20;2734355;-47
2024/04/05 08:13:08;;;;;;;;;3.00;3.00;;;;;19.53;63.63;99934.53;6305753;20;2754466;-48
2024/04/05 08:15:36;;;;;;;;;1.00;1.00;;;;;19.89;62.76;99929.34;6307937;20;2739900;-47
2024/04/05 08:18:04;;;;;;;;;3.00;2.00;;;;;19.72;62.09;99928.25;6304232;20;2744053;-51
2024/04/05 08:20:31;;;;;;;;;2.67;1.33;;;;;19.95;62.60;99930.59;6307398;20;2744099;-52
2024/04/05 08:22:58;;;;;;;;;2.00;2.00;;;;;19.89;64.51;99929.34;6308937;20;2750373;-50
2024/04/05 08:25:25;;;;;;;;;3.00;1.33;;;;;20.13;62.44;99930.69;6313299;20;2733756;-48
2024/04/05 08:27:53;;;;;;;;;1.00;1.00;;;;;19.95;63.44;99934.19;6312619;20;2724295;-48
2024/04/05 08:30:20;;;;;;;;;4.67;3.00;;;;;19.71;63.06;99925.66;6312086;20;2741956;-48
2024/04/05 08:32:47;;;;;;;;;2.00;1.00;;;;;19.64;63.92;99933.56;6312247;20;2733618;-48
2024/04/05 08:35:14;;;;;;;;;1.67;1.67;;;;;20.41;61.69;99942.47;6312956;20;2738269;-47
2024/04/05 08:37:44;;;;;;;;;1.00;1.00;;;;;20.15;60.68;99931.41;6312297;20;2723244;-51
2024/04/05 08:40:13;;;;;;;;;1.33;0.33;;;;;20.55;60.69;99935.69;6313869;20;2728459;-53
2024/04/05 08:42:45;;;;;;;;;3.33;1.33;;;;;20.08;60.64;99942.03;6311688;20;2739866;-47
2024/04/05 08:45:14;;;;;;;;;2.00;1.00;;;;;19.77;62.68;99949.59;6314787;20;2724295;-50
2024/04/05 08:47:42;;;;;;;;;38.00;30.00;;;;;20.27;60.18;99949.28;6304782;20;2546132;-48
2024/04/05 08:50:14;;;;;;;;;5.00;2.67;;;;;20.65;62.52;99947.41;6282707;20;2733705;-48
2024/04/05 08:52:42;;;;;;;;;2.40;1.60;;;;;20.76;57.70;99944.44;6333314;20;2746295;-42
2024/04/05 08:55:09;;;;;;;;;1.00;1.00;;;;;20.54;59.76;99950.34;6312369;20;2726334;-43
2024/04/05 08:57:39;;;;;;;;;4.00;1.00;;;;;20.58;60.58;99946.28;6312245;20;2734773;-42
2024/04/05 09:00:08;;;;;;;;;1.00;1.00;;;;;20.60;56.44;99949.72;6313285;20;2721305;-43
2024/04/05 09:02:38;;;;;;;;;2.33;0.67;;;;;20.90;56.62;99944.94;6313143;20;2735838;-43
2024/04/05 09:05:09;;;;;;;;;0.80;0.80;;;;;20.88;55.45;99952.41;6354531;20;2460724;-45
2024/04/05 09:07:37;;;;;;;;;1.00;1.00;;;;;20.45;56.25;99948.47;6314070;20;2728416;-43
2024/04/05 09:10:14;;;;;;;;;2.33;0.67;;;;;20.85;54.98;99941.81;6314222;20;2727527;-43
2024/04/05 09:12:54;;;;;;;;;0.00;0.00;;;;;21.06;53.60;99939.63;6312398;20;2733638;-44
2024/04/05 09:15:26;;;;;;;;;1.67;1.67;;;;;21.08;52.78;99942.22;6312181;20;2735725;-44
2024/04/05 09:17:54;;;;;;;;;1.00;1.00;;;;;20.99;52.38;99947.59;6313933;20;2727418;-43
2024/04/05 09:20:29;;;;;;;;;0.00;0.00;;;;;21.07;51.23;99951.44;6312664;20;2724364;-44
2024/04/05 09:23:06;;;;;;;;;1.00;1.00;;;;;21.24;52.80;99954.13;6311037;20;2734697;-43
2024/04/05 09:25:37;;;;;;;;;0.60;0.60;;;;;22.10;51.97;99950.72;6334938;20;2732967;-44
2024/04/05 09:28:20;;;;;;;;;0.43;0.43;;;;;20.26;57.99;99952.16;6350646;20;3431605;-42
2024/04/05 09:30:48;;;;;;;;;1.00;1.00;;;;;21.40;57.40;99958.06;6312046;20;2750414;-46
2024/04/05 09:33:20;;;;;;;;;3.00;3.00;;;;;20.89;56.51;99952.25;6333421;20;2735749;-45
2024/04/05 09:35:49;;;;;;;;;1.60;1.60;;;;;21.32;56.61;99950.63;6330575;20;2737828;-49
2024/04/05 09:38:17;;;;;;;;;2.33;1.00;;;;;20.63;54.78;99954.88;6312438;20;2723262;-48
2024/04/05 09:40:48;;;;;;;;;2.00;2.00;;;;;21.47;54.80;99950.97;6332641;20;2734015;-44
2024/04/05 09:43:16;;;;;;;;;2.00;2.00;;;;;22.01;53.45;99948.09;6311493;20;2748222;-46
2024/04/05 09:45:49;;;;;;;;;0.00;0.00;;;;;21.81;51.98;99952.94;6310936;20;2731629;-43
2024/04/05 09:48:18;;;;;;;;;2.00;2.00;;;;;21.94;51.53;99950.63;6309598;20;2750281;-42
2024/04/05 09:50:47;;;;;;;;;0.67;0.00;;;;;21.35;51.81;99954.91;6309763;20;2727400;-45
2024/04/05 09:53:18;;;;;;;;;1.20;1.20;;;;;21.55;53.00;99955.66;6332378;20;2742009;-43
2024/04/05 09:55:49;;;;;;;;;2.00;2.00;;;;;21.76;54.22;99958.03;6334001;20;2726335;-44
2024/04/05 09:58:22;;;;;;;;;3.00;1.80;;;;;21.59;54.14;99951.56;6332299;20;2742463;-44
2024/04/05 10:00:52;;;;;;;;;2.00;1.60;;;;;21.24;53.74;99958.75;6332174;20;2746206;-45
2024/04/05 10:03:21;;;;;;;;;3.00;1.60;;;;;21.68;52.68;99956.94;6333543;20;2737792;-43
2024/04/05 10:05:49;;;;;;;;;1.67;1.00;;;;;21.50;52.45;99952.53;6311135;20;2724326;-45
2024/04/05 10:08:17;;;;;;;;;3.20;3.00;;;;;21.39;53.54;99945.44;6332063;20;2754551;-43
2024/04/05 10:10:45;;;;;;;;;1.00;1.00;;;;;21.13;53.35;99942.59;6301430;20;2741979;-43
2024/04/05 10:13:16;;;;;;;;;1.00;1.00;;;;;21.67;51.46;99949.75;6310858;20;2724382;-46
2024/04/05 10:15:59;;;;;;;;;0.00;0.00;;;;;21.79;49.43;99944.03;6331885;20;2727457;-43
2024/04/05 10:18:39;;;;;;;;;2.00;1.00;;;;;22.03;49.55;99949.63;6346984;20;3432643;-45
2024/04/05 10:21:12;;;;;;;;;1.00;1.00;;;;;22.00;48.81;99947.25;6311612;20;2721261;-43
2024/04/05 10:23:45;;;;;;;;;1.33;1.33;;;;;21.16;50.37;99945.88;6311694;20;2730493;-43
2024/04/05 10:26:13;;;;;;;;;3.00;3.00;;;;;21.19;51.42;99937.38;6334612;20;2753551;-43
2024/04/05 10:28:42;;;;;;;;;4.40;1.80;;;;;21.46;51.15;99941.06;6300214;20;2750310;-43
2024/04/05 10:31:12;;;;;;;;;1.00;1.00;;;;;21.75;49.80;99942.63;6281697;20;2722233;-50
2024/04/05 10:33:45;;;;;;;;;1.00;1.00;;;;;21.91;49.26;99942.75;6310509;20;2716943;-45
2024/04/05 10:36:12;;;;;;;;;0.67;0.67;;;;;21.38;52.39;99949.16;6302820;20;2722209;-44
2024/04/05 10:38:41;;;;;;;;;1.00;1.00;;;;;21.81;50.51;99948.31;6300631;20;2741983;-46
2024/04/05 10:41:10;;;;;;;;;1.00;1.00;;;;;20.80;50.93;99937.69;6323258;20;2732579;-44
2024/04/05 10:43:39;;;;;;;;;1.67;1.67;;;;;22.28;48.31;99942.47;6302353;20;2742068;-45
2024/04/05 10:46:06;;;;;;;;;0.67;0.67;;;;;21.98;48.82;99940.22;6299776;20;2730584;-43
2024/04/05 10:48:35;;;;;;;;;1.20;1.20;;;;;20.86;53.55;99938.94;6323969;20;2735697;-44
2024/04/05 10:51:05;;;;;;;;;0.67;0.67;;;;;21.55;50.83;99939.25;6304872;20;2728653;-43
2024/04/05 10:53:33;;;;;;;;;2.40;1.20;;;;;21.92;49.78;99939.00;6325904;20;2749396;-43
2024/04/05 10:56:01;;;;;;;;;1.33;1.00;;;;;22.53;48.76;99935.19;6304255;20;2727394;-45
2024/04/05 10:58:28;;;;;;;;;2.00;2.00;;;;;21.65;51.68;99929.09;6300149;20;2744565;-44
2024/04/05 11:00:57;;;;;;;;;2.60;2.60;;;;;22.60;50.91;99940.88;6322396;20;2751395;-45
2024/04/05 11:03:25;;;;;;;;;3.80;2.00;;;;;21.82;50.61;99930.03;6290401;20;2748232;-44
2024/04/05 11:06:04;;;;;;;;;4.00;2.00;;;;;22.33;50.79;99933.78;6325666;20;2748392;-44
2024/04/05 11:08:33;;;;;;;;;3.20;2.60;;;;;21.60;51.86;99928.69;6324559;20;2744085;-44
2024/04/05 11:11:11;;;;;;;;;4.40;2.80;;;;;21.50;52.61;99923.31;6324870;20;2743040;-43
2024/04/05 11:13:38;;;;;;;;;3.67;3.67;;;;;21.09;52.19;99922.06;6302361;20;2738932;-44